Time;durP1;ratioP1;P1;durP2;ratioP2;P2;SDS_P1;SDS_P2;PMS_P1;PMS_P2;Temp;Humidity;BMP_temperature;BMP_pressure;BME280_temperature;BME280_humidity;BME280_pressure;Samples;Min_cycle;Max_cycle;Signal;HPM_P1;HPM_P2
2022/05/04 00:00:00;;;;;;;;;6.00;6.00;;;;;22.58;39.67;101146.39;110320;1264;18478;-48
2022/05/04 00:02:28;;;;;;;;;7.00;7.00;;;;;22.59;39.80;101146.48;110441;1262;19893;-53
2022/05/04 00:04:55;;;;;;;;;8.00;7.00;;;;;22.58;39.71;101145.88;110264;1264;19499;-52
2022/05/04 00:07:22;;;;;;;;;9.00;9.00;;;;;22.57;39.76;101146.18;110393;1262;18460;-52
2022/05/04 00:09:49;;;;;;;;;6.00;6.00;;;;;22.57;39.61;101144.41;110293;1264;18713;-52
2022/05/04 00:12:17;;;;;;;;;6.00;6.00;;;;;22.57;39.63;101143.05;110441;1262;22908;-49
2022/05/04 00:14:44;;;;;;;;;6.00;6.00;;;;;22.56;39.69;101140.63;110322;1265;18447;-51
2022/05/04 00:17:11;;;;;;;;;6.00;6.00;;;;;22.55;39.69;101140.95;110422;1262;30461;-51
2022/05/04 00:19:39;;;;;;;;;9.00;9.00;;;;;22.55;39.77;101143.30;110263;1264;19592;-52
2022/05/04 00:22:06;;;;;;;;;7.00;6.00;;;;;22.55;39.67;101141.87;110444;1262;18427;-50
2022/05/04 00:24:33;;;;;;;;;6.00;5.67;;;;;22.55;39.69;101144.27;110276;1262;18717;-48
2022/05/04 00:27:00;;;;;;;;;7.33;6.67;;;;;22.55;39.79;101147.13;110263;1264;21668;-50
2022/05/04 00:29:27;;;;;;;;;6.00;6.00;;;;;22.55;39.73;101147.51;110416;1261;18356;-52
2022/05/04 00:31:55;;;;;;;;;7.00;6.50;;;;;22.56;39.74;101151.09;110284;1264;18888;-52
2022/05/04 00:34:22;;;;;;;;;7.00;6.00;;;;;22.56;39.69;101149.27;110434;1261;19749;-49
2022/05/04 00:36:49;;;;;;;;;7.67;7.00;;;;;22.56;39.60;101150.78;110290;1264;18494;-50
2022/05/04 00:39:16;;;;;;;;;6.00;6.00;;;;;22.56;39.74;101152.21;110444;1262;18993;-50
2022/05/04 00:41:44;;;;;;;;;6.67;6.00;;;;;22.55;39.78;101153.73;110301;1264;19681;-48
2022/05/04 00:44:11;;;;;;;;;6.00;6.00;;;;;22.55;39.63;101151.38;110294;1265;21993;-51
2022/05/04 00:46:38;;;;;;;;;6.00;5.67;;;;;22.56;39.73;101155.97;110290;1264;18753;-48
2022/05/04 00:49:07;;;;;;;;;6.67;6.67;;;;;22.56;39.77;101158.52;110297;1264;20881;-51
2022/05/04 00:51:34;;;;;;;;;6.67;6.00;;;;;22.56;39.76;101161.09;110284;1264;18427;-52
2022/05/04 00:54:01;;;;;;;;;6.67;6.00;;;;;22.56;39.84;101160.95;110323;1264;18803;-50
2022/05/04 00:56:29;;;;;;;;;7.00;6.00;;;;;22.56;39.81;101166.18;110275;1264;19960;-50
2022/05/04 00:58:56;;;;;;;;;6.33;6.00;;;;;22.54;39.71;101166.02;110262;1264;18969;-48
2022/05/04 01:01:23;;;;;;;;;7.00;6.00;;;;;22.56;39.80;101169.83;110271;1265;18708;-48
2022/05/04 01:03:51;;;;;;;;;6.00;6.00;;;;;22.56;39.78;101169.11;110266;1263;19525;-51
2022/05/04 01:06:18;;;;;;;;;7.00;6.00;;;;;22.55;39.62;101168.81;110282;1263;20459;-54
2022/05/04 01:08:45;;;;;;;;;6.00;6.00;;;;;22.55;39.65;101170.36;110343;1265;19042;-51
2022/05/04 01:11:12;;;;;;;;;6.00;6.00;;;;;22.55;39.67;101172.13;110281;1264;19558;-49
2022/05/04 01:13:40;;;;;;;;;9.33;9.00;;;;;22.54;39.77;101171.83;110257;1264;20102;-48
2022/05/04 01:16:07;;;;;;;;;9.00;7.00;;;;;22.55;39.82;101172.71;110277;1264;22242;-49
2022/05/04 01:18:34;;;;;;;;;6.00;5.00;;;;;22.54;39.79;101173.52;110325;1262;19508;-48
2022/05/04 01:21:01;;;;;;;;;8.00;7.00;;;;;22.54;39.72;101170.42;110315;1265;18582;-48
2022/05/04 01:23:29;;;;;;;;;6.33;6.00;;;;;22.54;39.83;101169.13;110435;1262;18737;-49
2022/05/04 01:25:56;;;;;;;;;9.33;8.00;;;;;22.54;39.70;101173.16;110281;1265;21193;-49
2022/05/04 01:28:23;;;;;;;;;7.67;7.00;;;;;22.54;39.77;101172.11;110376;1261;18634;-51
2022/05/04 01:30:51;;;;;;;;;9.00;7.00;;;;;22.54;39.72;101169.92;110289;1263;21982;-51
2022/05/04 01:33:18;;;;;;;;;7.00;6.00;;;;;22.55;39.77;101174.15;110448;1262;19431;-48
2022/05/04 01:35:45;;;;;;;;;7.33;7.00;;;;;22.54;39.58;101172.49;110324;1264;18589;-48
2022/05/04 01:38:12;;;;;;;;;7.33;7.00;;;;;22.54;39.76;101171.55;110268;1264;18768;-50
2022/05/04 01:40:40;;;;;;;;;7.00;7.00;;;;;22.54;39.67;101174.56;110285;1265;19521;-50
2022/05/04 01:43:07;;;;;;;;;7.00;6.67;;;;;22.54;39.62;101174.46;110303;1263;20330;-53
2022/05/04 01:45:34;;;;;;;;;6.67;6.00;;;;;22.54;39.75;101177.77;110277;1264;19714;-53
2022/05/04 01:48:01;;;;;;;;;6.00;6.00;;;;;22.54;39.62;101178.11;110433;1262;19657;-47
2022/05/04 01:50:29;;;;;;;;;6.00;6.00;;;;;22.54;39.67;101178.98;110450;1262;18487;-52
2022/05/04 01:52:56;;;;;;;;;7.00;7.00;;;;;22.54;39.60;101177.23;110288;1264;18751;-52
2022/05/04 01:55:23;;;;;;;;;7.00;6.00;;;;;22.54;39.66;101179.17;110269;1264;22421;-49
2022/05/04 01:57:50;;;;;;;;;9.67;9.00;;;;;22.54;39.62;101178.66;110282;1264;18486;-49
2022/05/04 02:00:18;;;;;;;;;7.33;7.00;;;;;22.54;39.70;101182.27;110313;1264;18795;-49
2022/05/04 02:02:45;;;;;;;;;9.00;7.00;;;;;22.54;39.61;101182.86;110329;1264;19451;-50
2022/05/04 02:05:12;;;;;;;;;9.00;7.00;;;;;22.53;39.54;101179.99;110285;1263;22646;-48
2022/05/04 02:07:39;;;;;;;;;5.00;5.00;;;;;22.54;39.67;101183.95;110304;1265;18815;-49
2022/05/04 02:10:07;;;;;;;;;7.00;6.00;;;;;22.54;39.63;101182.99;110284;1265;19507;-49
2022/05/04 02:12:34;;;;;;;;;6.00;6.00;;;;;22.54;39.65;101182.78;110250;1263;18382;-50
2022/05/04 02:15:03;;;;;;;;;7.00;6.00;;;;;22.53;39.65;101185.27;110351;1265;18607;-52
2022/05/04 02:17:30;;;;;;;;;6.00;6.00;;;;;22.53;39.66;101189.08;110313;1265;19515;-50
2022/05/04 02:19:57;;;;;;;;;7.00;6.00;;;;;22.53;39.66;101195.67;110295;1264;18581;-49
2022/05/04 02:22:24;;;;;;;;;6.33;6.00;;;;;22.54;39.65;101197.08;110276;1262;20647;-50
2022/05/04 02:24:52;;;;;;;;;6.00;6.00;;;;;22.54;39.76;101197.04;110307;1263;19463;-51
2022/05/04 02:27:19;;;;;;;;;7.00;6.00;;;;;22.54;39.66;101202.88;110322;1264;18478;-48
2022/05/04 02:29:46;;;;;;;;;8.00;6.67;;;;;22.53;39.72;101201.53;110338;1265;19582;-51
2022/05/04 02:32:13;;;;;;;;;7.00;7.00;;;;;22.52;39.75;101202.11;110141;1263;20974;-51
2022/05/04 02:40:07;;;;;;;;;6.00;6.00;;;;;22.53;39.76;101204.27;110264;1265;19611;-49
2022/05/04 02:42:34;;;;;;;;;6.00;6.00;;;;;22.52;39.75;101202.87;110480;1261;22091;-50
2022/05/04 02:45:01;;;;;;;;;9.67;8.67;;;;;22.52;39.78;101207.83;110353;1265;19008;-50
2022/05/04 02:47:29;;;;;;;;;6.67;6.33;;;;;22.51;39.84;101206.42;110436;1262;19470;-54
2022/05/04 02:49:56;;;;;;;;;7.00;7.00;;;;;22.53;39.81;101209.77;110281;1264;18588;-49
2022/05/04 02:52:23;;;;;;;;;5.67;5.33;;;;;22.52;39.86;101204.06;110434;1262;18809;-50
2022/05/04 02:54:51;;;;;;;;;7.00;6.00;;;;;22.51;39.78;101204.82;110272;1264;19617;-51
2022/05/04 02:57:18;;;;;;;;;9.00;7.00;;;;;22.51;39.83;101211.38;110429;1262;18476;-52
2022/05/04 02:59:45;;;;;;;;;6.00;6.00;;;;;22.52;39.78;101213.48;110301;1264;19239;-51
2022/05/04 03:02:28;;;;;;;;;9.67;9.00;;;;;22.52;39.81;101214.75;110440;1261;19346;-51
2022/05/04 03:04:55;;;;;;;;;8.33;7.00;;;;;22.51;39.90;101214.17;110314;1264;19013;-49
2022/05/04 03:07:22;;;;;;;;;6.00;6.00;;;;;22.51;39.77;101222.30;110266;1264;18759;-50
2022/05/04 03:09:49;;;;;;;;;10.33;7.67;;;;;22.51;39.75;101219.27;110435;1262;19627;-48
2022/05/04 03:12:17;;;;;;;;;6.00;6.00;;;;;22.51;39.79;101220.15;110435;1261;18546;-49
2022/05/04 03:14:44;;;;;;;;;10.00;6.67;;;;;22.51;39.78;101221.79;110292;1264;18741;-50
2022/05/04 03:17:11;;;;;;;;;7.33;7.00;;;;;22.50;39.89;101220.06;110456;1261;19632;-49
2022/05/04 03:19:38;;;;;;;;;8.00;7.00;;;;;22.51;39.80;101218.17;110284;1263;18725;-50
2022/05/04 03:22:06;;;;;;;;;6.00;6.00;;;;;22.51;39.89;101222.54;110475;1262;18780;-50
2022/05/04 03:24:33;;;;;;;;;6.67;6.67;;;;;22.51;39.75;101220.90;110443;1261;19502;-50
2022/05/04 03:27:00;;;;;;;;;7.00;7.00;;;;;22.51;39.85;101223.42;110290;1263;18513;-51
2022/05/04 03:29:27;;;;;;;;;7.33;7.33;;;;;22.51;39.80;101227.23;110425;1262;18589;-49
2022/05/04 03:31:55;;;;;;;;;7.67;6.67;;;;;22.51;39.76;101226.67;110282;1264;22283;-48
2022/05/04 03:34:22;;;;;;;;;6.67;6.00;;;;;22.51;39.74;101230.11;110393;1261;18554;-49
2022/05/04 03:36:49;;;;;;;;;7.00;7.00;;;;;22.52;39.82;101233.20;110280;1264;18863;-50
2022/05/04 03:39:17;;;;;;;;;8.00;8.00;;;;;22.51;39.91;101233.94;110473;1261;19620;-48
2022/05/04 03:41:45;;;;;;;;;6.00;6.00;;;;;22.51;39.73;101234.36;110308;1264;18405;-51
2022/05/04 03:44:12;;;;;;;;;9.00;6.00;;;;;22.50;39.91;101240.61;110446;1261;18662;-53
2022/05/04 03:46:39;;;;;;;;;6.00;6.00;;;;;22.52;39.83;101249.67;110405;1261;19749;-48
2022/05/04 03:49:08;;;;;;;;;6.00;6.00;;;;;22.51;39.74;101248.48;110295;1263;18521;-50
2022/05/04 03:51:35;;;;;;;;;8.00;5.50;;;;;22.51;39.84;101250.07;110477;1262;19308;-49
2022/05/04 03:54:02;;;;;;;;;8.00;8.00;;;;;22.51;39.80;101247.13;110334;1264;19541;-51
2022/05/04 03:56:30;;;;;;;;;7.00;7.00;;;;;22.50;39.71;101250.11;110451;1262;18531;-50
2022/05/04 03:58:57;;;;;;;;;5.00;5.00;;;;;22.51;39.75;101252.39;110276;1263;18696;-52
2022/05/04 04:01:24;;;;;;;;;9.00;8.00;;;;;22.51;39.69;101253.89;110370;1261;20592;-48
2022/05/04 04:03:51;;;;;;;;;6.00;6.00;;;;;22.51;39.79;101255.12;110287;1265;18604;-50
2022/05/04 04:06:18;;;;;;;;;9.00;7.00;;;;;22.50;39.70;101252.12;110385;1261;18827;-50
2022/05/04 04:08:46;;;;;;;;;6.00;6.00;;;;;22.50;39.75;101253.52;110327;1264;19625;-49
2022/05/04 04:11:13;;;;;;;;;8.00;7.00;;;;;22.50;39.83;101253.92;110403;1262;18456;-48
2022/05/04 04:13:40;;;;;;;;;8.00;6.67;;;;;22.50;39.85;101251.58;110398;1262;18969;-48
2022/05/04 04:16:07;;;;;;;;;8.67;8.33;;;;;22.50;39.85;101255.02;110388;1262;20479;-50
2022/05/04 04:18:35;;;;;;;;;8.67;8.00;;;;;22.51;39.81;101251.49;110379;1262;21100;-48
2022/05/04 04:23:47;;;;;;;;;9.67;8.67;;;;;22.52;39.86;101262.70;110278;1265;21784;-47
2022/05/04 04:26:14;;;;;;;;;5.67;5.67;;;;;22.51;39.68;101263.66;110400;1261;18652;-49
2022/05/04 04:28:41;;;;;;;;;8.00;6.67;;;;;22.51;39.72;101266.73;110419;1262;18984;-50
2022/05/04 04:31:09;;;;;;;;;7.00;7.00;;;;;22.52;39.68;101271.23;110395;1262;20119;-49
2022/05/04 04:33:37;;;;;;;;;7.33;7.33;;;;;22.51;39.66;101268.33;110392;1262;18379;-50
2022/05/04 04:36:04;;;;;;;;;9.00;8.00;;;;;22.52;39.74;101270.83;110332;1264;18727;-52
2022/05/04 04:38:31;;;;;;;;;9.00;7.33;;;;;22.52;39.66;101272.49;110437;1262;19518;-49
2022/05/04 04:40:59;;;;;;;;;6.67;6.00;;;;;22.52;39.76;101274.33;110304;1262;18550;-49
2022/05/04 04:43:26;;;;;;;;;10.67;10.67;;;;;22.37;37.88;101276.41;110193;1264;18631;-50
2022/05/04 04:45:53;;;;;;;;;14.00;12.00;;;;;22.04;35.27;101272.11;110387;1262;21739;-52
2022/05/04 04:48:21;;;;;;;;;9.00;9.00;;;;;21.72;32.59;101273.69;110415;1262;22887;-51
2022/05/04 04:50:48;;;;;;;;;9.67;9.67;;;;;21.45;32.19;101274.25;110199;1264;22439;-53
2022/05/04 04:53:16;;;;;;;;;11.00;11.00;;;;;21.28;31.18;101274.34;110254;1264;19569;-50
2022/05/04 04:55:44;;;;;;;;;11.33;11.00;;;;;21.15;30.13;101280.08;110442;1262;18432;-49
2022/05/04 04:58:11;;;;;;;;;12.00;11.00;;;;;21.09;29.78;101283.34;110257;1262;18791;-48
2022/05/04 05:00:38;;;;;;;;;10.00;8.50;;;;;20.85;29.38;101286.96;110255;1262;20928;-49
2022/05/04 05:03:05;;;;;;;;;11.00;9.00;;;;;20.62;29.92;101287.47;110317;1264;21403;-48
2022/05/04 05:05:33;;;;;;;;;8.00;7.33;;;;;21.10;31.93;101289.00;110400;1261;18919;-47
2022/05/04 05:08:00;;;;;;;;;8.00;8.00;;;;;21.48;32.50;101291.26;110287;1263;19457;-47
2022/05/04 05:10:28;;;;;;;;;10.00;9.00;;;;;21.72;32.47;101288.41;110419;1262;18605;-48
2022/05/04 05:12:55;;;;;;;;;8.00;6.00;;;;;21.87;32.38;101293.84;110304;1264;18853;-48
2022/05/04 05:18:07;;;;;;;;;12.00;10.00;;;;;22.06;32.08;101295.88;110309;1264;18386;-47
2022/05/04 05:20:34;;;;;;;;;12.50;10.00;;;;;22.10;32.50;101302.14;110425;1261;18792;-49
2022/05/04 05:23:02;;;;;;;;;8.00;8.00;;;;;22.18;32.81;101302.98;110333;1262;19619;-49
2022/05/04 05:25:30;;;;;;;;;9.00;8.00;;;;;22.21;32.96;101302.45;110314;1262;19211;-48
2022/05/04 05:27:57;;;;;;;;;8.67;8.00;;;;;22.08;31.85;101303.44;110286;1262;18705;-47
2022/05/04 05:30:24;;;;;;;;;11.33;8.67;;;;;21.76;30.95;101298.58;110322;1262;19523;-48
2022/05/04 05:32:52;;;;;;;;;7.33;7.33;;;;;21.82;31.94;101296.13;110365;1261;18707;-48
2022/05/04 05:35:19;;;;;;;;;8.00;8.00;;;;;21.94;33.01;101295.01;110309;1261;18855;-48
2022/05/04 05:37:46;;;;;;;;;8.50;8.50;;;;;22.10;33.05;101296.17;110321;1261;21714;-49
2022/05/04 05:40:13;;;;;;;;;6.00;6.00;;;;;22.23;33.25;101290.60;110162;1264;18669;-48
2022/05/04 05:42:41;;;;;;;;;8.00;6.67;;;;;22.31;33.38;101289.45;110083;1263;18805;-49
2022/05/04 05:45:08;;;;;;;;;8.00;6.67;;;;;22.39;33.29;101291.41;110270;1264;19576;-48
2022/05/04 05:47:35;;;;;;;;;6.00;6.00;;;;;22.43;33.24;101295.19;110292;1264;18513;-49
2022/05/04 05:50:02;;;;;;;;;6.67;6.00;;;;;22.48;33.44;101300.81;110400;1262;21001;-47
2022/05/04 05:52:30;;;;;;;;;8.00;6.00;;;;;22.50;33.62;101300.58;110264;1262;19640;-50
2022/05/04 05:54:58;;;;;;;;;8.00;6.00;;;;;22.51;33.95;101300.84;110267;1262;19258;-48
2022/05/04 05:57:25;;;;;;;;;8.00;8.00;;;;;22.58;34.98;101304.96;110191;1262;22208;-45
2022/05/04 05:59:52;;;;;;;;;8.00;6.00;;;;;22.75;35.47;101305.31;110080;1264;19529;-49
2022/05/04 06:02:22;;;;;;;;;6.67;6.00;;;;;22.80;35.78;101302.21;110061;1263;18953;-47
2022/05/04 06:04:50;;;;;;;;;8.67;7.00;;;;;22.79;35.96;101302.49;110409;1262;18934;-49
2022/05/04 06:07:17;;;;;;;;;5.00;5.00;;;;;22.80;36.41;101303.89;110324;1261;19519;-50
2022/05/04 06:09:44;;;;;;;;;7.67;6.33;;;;;22.83;36.61;101306.00;110261;1264;18633;-50
2022/05/04 06:12:11;;;;;;;;;9.00;9.00;;;;;22.85;36.63;101306.45;110461;1261;21768;-51
2022/05/04 06:14:38;;;;;;;;;6.67;6.33;;;;;22.85;36.37;101310.01;110334;1262;32587;-49
2022/05/04 06:17:06;;;;;;;;;8.67;6.67;;;;;22.84;36.32;101312.33;110292;1264;18521;-49
2022/05/04 06:19:33;;;;;;;;;9.67;7.33;;;;;22.83;36.19;101309.35;110448;1262;19439;-49
2022/05/04 06:22:00;;;;;;;;;5.00;5.00;;;;;22.86;36.25;101307.94;110319;1262;20254;-49
2022/05/04 06:24:28;;;;;;;;;6.00;6.00;;;;;22.89;36.25;101315.03;110294;1262;22165;-48
2022/05/04 06:26:55;;;;;;;;;6.00;6.00;;;;;22.88;36.32;101308.77;110450;1262;18715;-50
2022/05/04 06:34:06;;;;;;;;;6.67;6.00;;;;;22.87;36.29;101312.48;110248;1264;19514;-50
2022/05/04 06:34:55;;;;;;;;;5.33;5.33;;;;;22.33;32.46;101317.02;110363;1261;20155;-51
2022/05/04 06:37:22;;;;;;;;;6.00;5.00;;;;;22.14;31.67;101318.70;110272;1262;20136;-48
2022/05/04 06:39:49;;;;;;;;;7.00;6.00;;;;;22.04;31.42;101316.25;110347;1261;18392;-52
2022/05/04 06:42:17;;;;;;;;;7.00;7.00;;;;;21.89;30.94;101313.84;110492;1261;20994;-48
2022/05/04 06:44:45;;;;;;;;;5.00;5.00;;;;;21.78;30.25;101315.02;110295;1264;19332;-49
2022/05/04 06:47:13;;;;;;;;;7.00;7.00;;;;;21.78;30.02;101318.42;110456;1262;18516;-49
2022/05/04 06:49:40;;;;;;;;;7.33;5.33;;;;;21.51;29.55;101315.61;110315;1262;18804;-49
2022/05/04 06:52:07;;;;;;;;;6.00;6.00;;;;;21.52;29.45;101317.53;110356;1262;22349;-49
2022/05/04 06:54:35;;;;;;;;;5.67;5.67;;;;;21.65;29.11;101317.23;110437;1261;18464;-49
2022/05/04 06:57:02;;;;;;;;;8.00;7.00;;;;;21.74;28.55;101319.66;110357;1262;18714;-53
2022/05/04 06:59:30;;;;;;;;;6.00;5.33;;;;;21.80;28.38;101323.05;110250;1264;19459;-49
2022/05/04 07:01:57;;;;;;;;;5.00;5.00;;;;;21.84;28.16;101324.91;110472;1262;18489;-50
2022/05/04 07:04:24;;;;;;;;;7.00;7.00;;;;;21.84;27.93;101324.89;110312;1262;21618;-55
2022/05/04 07:06:52;;;;;;;;;8.00;6.00;;;;;21.86;28.05;101321.75;110398;1261;19724;-47
2022/05/04 07:09:19;;;;;;;;;7.33;6.00;;;;;21.87;27.75;101321.61;110305;1262;18597;-50
2022/05/04 07:11:46;;;;;;;;;5.00;5.00;;;;;21.83;27.64;101323.77;110377;1262;20173;-48
2022/05/04 07:14:13;;;;;;;;;6.00;5.00;;;;;21.82;28.27;101325.15;110434;1262;19855;-48
2022/05/04 07:16:41;;;;;;;;;6.00;6.00;;;;;22.00;28.60;101328.16;110373;1262;22334;-48
2022/05/04 07:19:08;;;;;;;;;5.00;5.00;;;;;21.95;28.29;101327.11;110328;1262;22813;-50
2022/05/04 07:21:35;;;;;;;;;8.00;6.67;;;;;21.94;28.19;101327.61;110230;1262;22254;-49
2022/05/04 07:24:02;;;;;;;;;5.00;5.00;;;;;21.83;28.21;101328.65;110257;1261;18473;-49
2022/05/04 07:26:30;;;;;;;;;6.00;5.00;;;;;21.86;28.08;101327.79;110362;1261;19120;-48
2022/05/04 07:28:57;;;;;;;;;8.00;8.00;;;;;21.93;28.09;101328.15;110341;1262;19799;-49
2022/05/04 07:31:24;;;;;;;;;6.00;6.00;;;;;21.95;27.91;101328.20;110400;1262;18848;-48
2022/05/04 07:33:51;;;;;;;;;4.00;4.00;;;;;22.01;28.23;101329.14;110298;1262;19007;-49
2022/05/04 07:36:19;;;;;;;;;6.67;6.00;;;;;21.84;28.35;101331.26;110344;1262;19686;-48
2022/05/04 07:38:46;;;;;;;;;7.33;6.00;;;;;21.87;29.00;101332.36;110175;1262;296794;-49
2022/05/04 07:43:59;;;;;;;;;5.00;4.00;;;;;22.06;28.60;101336.05;110413;1261;19593;-50
2022/05/04 07:46:27;;;;;;;;;6.00;6.00;;;;;21.91;28.57;101335.56;110264;1264;19162;-47
2022/05/04 07:48:55;;;;;;;;;8.00;6.00;;;;;21.89;28.26;101333.27;110413;1262;19114;-48
2022/05/04 07:51:22;;;;;;;;;6.67;6.00;;;;;21.83;28.32;101337.41;110238;1262;20273;-49
2022/05/04 07:53:50;;;;;;;;;6.00;6.00;;;;;21.72;28.06;101331.02;110146;1264;19087;-48
2022/05/04 07:56:17;;;;;;;;;5.67;5.33;;;;;21.60;28.09;101336.45;110151;1265;27368;-48
2022/05/04 07:58:44;;;;;;;;;7.00;7.00;;;;;21.49;28.35;101335.08;110263;1264;19412;-50
2022/05/04 08:06:40;;;;;;;;;8.00;6.00;;;;;20.90;28.32;101340.00;110211;1265;23408;-51
2022/05/04 08:09:07;;;;;;;;;9.00;8.00;;;;;21.05;28.48;101337.02;110305;1264;18646;-49
2022/05/04 08:11:34;;;;;;;;;5.33;5.00;;;;;21.38;28.21;101343.55;110235;1264;18833;-48
2022/05/04 08:14:02;;;;;;;;;6.00;6.00;;;;;21.56;28.04;101338.86;110209;1265;23732;-48
2022/05/04 08:16:29;;;;;;;;;6.00;5.00;;;;;21.63;28.10;101341.07;110243;1264;18616;-48
2022/05/04 08:18:56;;;;;;;;;6.00;6.00;;;;;21.58;28.11;101340.91;110258;1265;18866;-50
2022/05/04 08:21:24;;;;;;;;;6.67;5.67;;;;;21.27;28.41;101342.84;110202;1264;19601;-50
2022/05/04 08:23:51;;;;;;;;;5.33;5.33;;;;;20.90;28.25;101343.53;110314;1264;18326;-48
2022/05/04 08:26:19;;;;;;;;;6.00;6.00;;;;;21.05;28.81;101343.83;110235;1263;18892;-49
2022/05/04 08:28:46;;;;;;;;;5.00;5.00;;;;;21.42;28.63;101341.84;110223;1264;19623;-49
2022/05/04 08:31:14;;;;;;;;;5.00;5.00;;;;;21.60;28.46;101339.64;110264;1264;18937;-48
2022/05/04 08:33:42;;;;;;;;;5.67;5.67;;;;;21.18;28.39;101339.59;110255;1263;18961;-50
2022/05/04 08:36:09;;;;;;;;;6.67;6.67;;;;;21.22;28.53;101346.58;110270;1264;20875;-47
2022/05/04 08:38:36;;;;;;;;;5.00;5.00;;;;;21.50;28.34;101341.17;110234;1265;23248;-50
2022/05/04 08:41:03;;;;;;;;;6.00;5.00;;;;;21.46;28.16;101344.70;110203;1264;18736;-47
2022/05/04 08:43:31;;;;;;;;;6.00;5.50;;;;;21.40;28.47;101343.36;110201;1264;19528;-46
2022/05/04 08:45:58;;;;;;;;;6.00;5.00;;;;;21.42;28.01;101341.87;110249;1264;20652;-48
2022/05/04 08:48:26;;;;;;;;;5.00;5.00;;;;;21.14;28.16;101336.16;110246;1264;18761;-50
2022/05/04 08:50:53;;;;;;;;;8.00;8.00;;;;;21.15;28.37;101335.50;110316;1264;19482;-49
2022/05/04 08:53:20;;;;;;;;;8.00;6.00;;;;;20.74;28.60;101345.02;110284;1263;18491;-49
2022/05/04 08:55:47;;;;;;;;;9.33;8.33;;;;;20.57;29.07;101339.23;110279;1264;18780;-49
2022/05/04 08:58:15;;;;;;;;;10.00;9.67;;;;;21.00;29.15;101337.81;110242;1264;23698;-49
2022/05/04 09:00:42;;;;;;;;;8.67;8.00;;;;;21.31;29.56;101333.27;110230;1264;18371;-50
2022/05/04 09:03:09;;;;;;;;;9.00;8.00;;;;;21.53;29.53;101335.65;110260;1265;18690;-50
2022/05/04 09:05:39;;;;;;;;;7.33;7.33;;;;;21.70;29.51;101328.24;110191;1264;19964;-50
2022/05/04 09:08:06;;;;;;;;;9.00;8.33;;;;;21.80;29.19;101328.80;110128;1263;19634;-50
2022/05/04 09:10:34;;;;;;;;;9.67;9.00;;;;;21.32;28.82;101329.69;110281;1264;19005;-48
2022/05/04 09:13:02;;;;;;;;;8.00;8.00;;;;;20.97;28.99;101332.89;110298;1264;22711;-49
2022/05/04 09:15:29;;;;;;;;;8.00;8.00;;;;;21.19;28.73;101330.86;110254;1265;22383;-48
2022/05/04 09:17:57;;;;;;;;;6.00;6.00;;;;;21.36;28.88;101326.13;110307;1265;21838;-50
2022/05/04 09:23:09;;;;;;;;;7.00;7.00;;;;;21.52;28.43;101323.73;110271;1264;20673;-48
2022/05/04 09:25:36;;;;;;;;;6.00;6.00;;;;;21.59;28.65;101321.65;110076;1264;18679;-47
2022/05/04 09:28:03;;;;;;;;;9.00;7.00;;;;;21.52;28.62;101325.70;110243;1263;19527;-49
2022/05/04 09:30:30;;;;;;;;;8.00;8.00;;;;;21.65;28.56;101318.79;110283;1264;18415;-54
2022/05/04 09:32:58;;;;;;;;;8.00;6.00;;;;;21.76;28.41;101310.52;110299;1263;19259;-50
2022/05/04 09:35:25;;;;;;;;;5.00;5.00;;;;;21.63;28.26;101313.20;110204;1264;20364;-50
2022/05/04 09:46:07;;;;;;;;;6.00;5.00;;;;;20.74;28.52;101314.88;110270;1264;18643;-49
2022/05/04 09:48:34;;;;;;;;;8.00;8.00;;;;;21.13;29.12;101312.08;110243;1264;21467;-53
2022/05/04 09:51:02;;;;;;;;;6.00;5.00;;;;;21.50;28.99;101308.13;110295;1264;22660;-50
2022/05/04 09:53:29;;;;;;;;;5.67;5.67;;;;;21.68;28.82;101306.99;110188;1264;19119;-50
2022/05/04 09:55:57;;;;;;;;;8.33;8.33;;;;;21.73;28.30;101301.55;110247;1264;18722;-49
2022/05/04 09:58:24;;;;;;;;;9.00;8.00;;;;;21.67;28.25;101302.43;110276;1265;19472;-49
2022/05/04 10:00:52;;;;;;;;;6.67;6.00;;;;;21.81;28.09;101300.90;110283;1264;18995;-49
2022/05/04 10:03:20;;;;;;;;;7.33;6.00;;;;;21.67;28.22;101299.16;110258;1264;18779;-50
2022/05/04 10:05:48;;;;;;;;;9.00;8.00;;;;;21.74;27.97;101305.67;110238;1264;19448;-49
2022/05/04 10:08:15;;;;;;;;;8.00;8.00;;;;;21.72;27.86;101302.02;110202;1264;18814;-54
2022/05/04 10:10:42;;;;;;;;;8.00;8.00;;;;;21.73;27.93;101299.70;110149;1264;18723;-50
2022/05/04 10:13:09;;;;;;;;;10.00;9.00;;;;;21.77;27.75;101299.33;110278;1265;21125;-54
2022/05/04 10:15:37;;;;;;;;;8.00;7.33;;;;;21.20;27.58;101296.96;110265;1264;22277;-51
2022/05/04 10:18:05;;;;;;;;;5.67;5.67;;;;;21.02;28.04;101291.52;110265;1265;18729;-48
2022/05/04 10:20:32;;;;;;;;;7.00;6.00;;;;;21.21;27.98;101290.31;110221;1265;19559;-51
2022/05/04 10:22:59;;;;;;;;;7.33;7.33;;;;;21.16;27.92;101291.80;110158;1263;18846;-50
2022/05/04 10:25:26;;;;;;;;;7.33;6.00;;;;;21.04;27.84;101295.61;110227;1265;22245;-51
2022/05/04 10:27:54;;;;;;;;;6.00;6.00;;;;;21.01;27.99;101291.59;110284;1264;19496;-51
2022/05/04 10:30:34;;;;;;;;;5.00;5.00;;;;;21.21;28.02;101294.48;110325;1264;18562;-52
2022/05/04 10:33:01;;;;;;;;;5.00;5.00;;;;;21.22;27.73;101287.67;110304;1264;18764;-50
2022/05/04 10:35:29;;;;;;;;;9.00;8.00;;;;;21.44;27.68;101289.48;110194;1264;19783;-50
2022/05/04 10:37:57;;;;;;;;;6.00;6.00;;;;;21.55;27.67;101286.61;110143;1264;18566;-51
2022/05/04 10:40:25;;;;;;;;;8.00;6.00;;;;;21.67;27.72;101284.45;110190;1265;21434;-50
2022/05/04 10:42:52;;;;;;;;;8.00;6.67;;;;;21.74;27.53;101279.84;110208;1264;20036;-50
2022/05/04 10:45:19;;;;;;;;;6.00;6.00;;;;;21.81;27.49;101277.27;110275;1264;18454;-51
2022/05/04 10:47:46;;;;;;;;;8.00;6.67;;;;;21.61;27.63;101280.56;110278;1264;19331;-50
2022/05/04 10:50:13;;;;;;;;;8.00;8.00;;;;;21.29;27.66;101282.01;110225;1264;19620;-49
2022/05/04 10:52:41;;;;;;;;;8.00;8.00;;;;;21.11;27.20;101275.50;110255;1262;22088;-51
2022/05/04 10:55:08;;;;;;;;;6.00;5.00;;;;;21.23;28.09;101271.08;110227;1262;19338;-49
2022/05/04 10:57:35;;;;;;;;;10.67;10.00;;;;;21.56;28.60;101274.86;110229;1262;19621;-49
2022/05/04 11:00:02;;;;;;;;;9.50;6.00;;;;;21.85;29.15;101273.20;110362;1262;18705;-51
2022/05/04 11:02:30;;;;;;;;;5.50;5.50;;;;;22.03;29.14;101269.48;110436;1261;18911;-53
2022/05/04 11:04:58;;;;;;;;;6.00;6.00;;;;;22.08;29.11;101270.91;110281;1262;23407;-50
2022/05/04 11:07:25;;;;;;;;;6.67;6.00;;;;;22.08;29.21;101273.84;110399;1262;18465;-50
2022/05/04 11:09:53;;;;;;;;;6.33;5.67;;;;;22.19;29.53;101269.21;110293;1262;18745;-49
2022/05/04 11:12:21;;;;;;;;;6.00;6.00;;;;;22.27;29.76;101269.70;110398;1262;20143;-53
2022/05/04 11:14:49;;;;;;;;;8.67;6.67;;;;;22.29;29.89;101271.43;110293;1262;18443;-53
2022/05/04 11:17:16;;;;;;;;;6.00;6.00;;;;;22.28;30.21;101275.09;110257;1264;18755;-49
2022/05/04 11:19:44;;;;;;;;;5.67;5.67;;;;;22.35;30.43;101270.90;110131;1264;19467;-50
2022/05/04 11:22:11;;;;;;;;;6.00;6.00;;;;;22.40;30.41;101272.52;110235;1265;18460;-54
2022/05/04 11:24:38;;;;;;;;;5.67;5.33;;;;;22.45;30.85;101272.58;110191;1263;18683;-51
2022/05/04 11:27:06;;;;;;;;;5.00;5.00;;;;;22.46;30.95;101267.66;110483;1261;19515;-51
2022/05/04 11:29:34;;;;;;;;;5.33;5.33;;;;;22.47;31.20;101261.20;110291;1262;18709;-55
2022/05/04 11:32:02;;;;;;;;;5.00;5.00;;;;;22.48;31.31;101264.55;110234;1264;18807;-51
2022/05/04 11:34:29;;;;;;;;;5.00;5.00;;;;;22.49;31.28;101263.66;110424;1261;19604;-49
2022/05/04 11:36:57;;;;;;;;;6.00;6.00;;;;;22.47;31.24;101263.02;110317;1261;18488;-52
2022/05/04 11:39:25;;;;;;;;;5.33;5.33;;;;;22.45;31.04;101260.77;110311;1262;19019;-55
2022/05/04 11:41:52;;;;;;;;;6.00;4.00;;;;;22.42;30.85;101261.07;110317;1262;21587;-52
2022/05/04 11:44:21;;;;;;;;;7.00;6.00;;;;;22.46;31.25;101258.98;110237;1264;18683;-49
2022/05/04 11:46:48;;;;;;;;;6.00;6.00;;;;;22.46;31.16;101252.09;110386;1262;22265;-51
2022/05/04 11:49:16;;;;;;;;;6.50;6.00;;;;;22.47;31.02;101251.74;110217;1264;23339;-47